Latest Weather Observations for Kununurra Airport

IDW60801

Issued at 5:32 pm WST Monday 6 July 2015 (issued every 30 minutes, with the page automatically refreshed every 10 minutes)

About weather observations | Map of weather stations | Latest weather observations for WA | Other Formats
Station Details ID: 002056 Name: KUNUNURRA AERO Lat: -15.78 Lon: 128.71 Height: 44.0 m
Data from the previous 72 hours. | See also: Recent months at Kununurra Airport
Date/Time
WST
Temp
°C
App
Temp
°C
Dew
Point
Rel
Hum
%
Delta-T
°C
Wind Press
QNH
hPa
Press
MSL
hPa
Rain
since 9 am
mm
Dir
 
Spd
km/h
Gust
km/h
Spd
kts
Gust
kts
06/05:30pm 23.4 22.9 13.8 54 5.6 SW 9 9 5 5 1012.8 1012.7 0.0
06/05:00pm 26.5 27.7 17.4 57 5.7 SW 7 9 4 5 1012.6 1012.5 0.0
06/04:30pm 28.5 32.3 22.8 71 3.9 SSW 7 9 4 5 1012.5 1012.4 0.0
06/04:00pm 29.1 32.8 23.3 71 4.0 SSW 9 11 5 6 1012.2 1012.1 0.0
06/03:30pm 29.5 33.5 23.7 71 4.0 SSW 9 13 5 7 1012.1 1012.0 0.0
06/03:00pm 29.4 31.4 20.7 59 5.8 S 11 15 6 8 1012.1 1012.0 0.0
06/02:30pm 29.6 31.5 19.0 53 6.9 SE 7 11 4 6 1012.3 1012.2 0.0
06/02:00pm 29.1 28.9 15.6 44 8.3 SSE 11 17 6 9 1012.6 1012.5 0.0
06/01:30pm 28.8 27.5 10.0 31 10.6 SSE 7 15 4 8 1012.9 1012.8 0.0
06/01:00pm 28.2 25.5 5.5 23 11.8 SSE 9 15 5 8 1013.4 1013.3 0.0
06/12:30pm 27.1 23.8 4.4 23 11.5 ESE 11 19 6 10 1013.9 1013.8 0.0
06/12:00pm 26.7 23.2 3.6 22 11.5 SSE 11 15 6 8 1014.5 1014.4 0.0
06/11:30am 26.1 22.2 3.5 23 11.2 SE 13 19 7 10 1015.0 1014.9 0.0
06/11:00am 25.6 29.9 25.5 99 0.1 SSE 13 19 7 10 1015.5 1015.4 0.0
06/10:30am 25.6 29.4 25.3 98 0.2 S 15 20 8 11 1016.0 1015.9 0.0
06/10:00am 25.0 28.2 23.7 92 0.9 SSE 13 20 7 11 1016.3 1016.2 0.0
06/09:30am 24.0 24.2 17.6 67 4.0 SSE 13 15 7 8 1016.6 1016.5 0.0
06/09:00am 23.6 20.7 6.5 33 8.8 SSE 11 13 6 7 1016.7 1016.6 0.0
06/08:30am 22.8 19.4 3.9 29 9.2 SE 11 17 6 9 1016.7 1016.6 0.0
06/08:00am 21.8 18.5 4.4 32 8.5 SSE 11 15 6 8 1016.4 1016.3 0.0
06/07:30am 19.9 19.5 8.1 46 6.1 CALM 0 4 0 2 1016.3 1016.2 0.0
06/07:00am 16.9 16.7 10.5 66 3.4 ESE 2 6 1 3 1015.9 1015.8 0.0
06/06:30am 14.8 15.1 10.8 77 2.1 CALM 0 6 0 3 1015.4 1015.3 0.0
06/06:00am 14.3 14.0 10.1 76 2.2 S 2 9 1 5 1015.1 1015.0 0.0
06/05:30am 12.3 12.0 8.7 79 1.8 CALM 0 0 0 0 1014.8 1014.7 0.0
06/05:00am 11.9 11.7 9.1 83 1.4 CALM 0 0 0 0 1014.4 1014.3 0.0
06/04:30am 12.1 12.0 9.3 83 1.4 CALM 0 0 0 0 1014.3 1014.2 0.0
06/04:00am 12.8 12.4 8.4 74 2.2 CALM 0 0 0 0 1014.2 1014.1 0.0
06/03:30am 13.6 11.8 7.3 65 3.1 SSW 6 7 3 4 1014.1 1014.0 0.0
06/03:00am 13.6 11.4 7.7 67 2.9 S 9 11 5 6 1013.9 1013.8 0.0
06/02:30am 14.3 12.3 8.6 68 2.9 S 9 11 5 6 1013.8 1013.7 0.0
06/02:00am 12.6 11.4 9.5 81 1.6 SE 6 11 3 6 1013.8 1013.7 0.0
06/01:30am 13.3 12.5 9.8 79 1.8 SSW 4 6 2 3 1013.9 1013.8 0.0
06/01:00am 12.8 11.9 10.5 86 1.2 S 6 7 3 4 1014.1 1014.0 0.0
06/12:30am 12.8 11.7 10.1 84 1.4 SE 6 6 3 3 1014.3 1014.2 0.0
06/12:00am 14.1 12.8 9.2 72 2.5 ESE 6 7 3 4 1014.3 1014.2 0.0
 
Date/Time
WST
Temp
°C
App
Temp
°C
Dew
Point
Rel
Hum
%
Delta-T
°C
Wind Press
QNH
hPa
Press
MSL
hPa
Rain
since 9 am
mm
Dir
 
Spd
km/h
Gust
km/h
Spd
kts
Gust
kts
05/11:30pm 13.5 12.2 10.0 79 1.8 ESE 7 9 4 5 1014.3 1014.2 0.0
05/11:00pm 13.6 12.8 9.5 76 2.1 SE 4 9 2 5 1014.3 1014.2 0.0
05/10:30pm 13.4 13.6 10.7 84 1.4 CALM 0 0 0 0 1014.5 1014.4 0.0
05/10:00pm 14.6 14.7 10.0 74 2.4 CALM 0 0 0 0 1014.8 1014.7 0.0
05/09:30pm 14.1 14.2 10.3 78 2.0 CALM 0 0 0 0 1014.9 1014.8 0.0
05/09:00pm 14.9 15.3 11.1 78 2.0 CALM 0 0 0 0 1015.0 1014.9 0.0
05/08:30pm 16.2 15.9 11.4 73 2.6 SE 4 6 2 3 1015.1 1015.0 0.0
05/08:00pm 17.5 16.9 11.6 68 3.2 SE 6 7 3 4 1015.1 1015.0 0.0
05/07:30pm 17.6 16.7 11.3 66 3.4 SSE 7 9 4 5 1015.1 1015.0 0.0
05/07:00pm 18.7 18.4 12.6 67 3.4 S 6 11 3 6 1014.8 1014.7 0.0
05/06:30pm 18.4 18.6 11.7 65 3.7 E 2 6 1 3 1014.5 1014.4 0.0
05/06:00pm 19.5 19.2 12.8 65 3.8 ESE 6 9 3 5 1014.3 1014.2 0.0
05/05:30pm 22.3 24.3 16.0 67 3.8 CALM 0 0 0 0 1014.0 1013.9 0.0
05/05:00pm 26.1 31.1 22.5 80 2.4 CALM 0 0 0 0 1013.8 1013.7 0.0
05/04:30pm 28.0 35.3 26.3 90 1.2 CALM 0 0 0 0 1013.5 1013.4 0.0
05/04:00pm 28.6 35.6 28.3 98 0.2 S 9 13 5 7 1013.2 1013.1 0.0
05/03:30pm 29.0 36.6 28.6 98 0.3 SSW 7 13 4 7 1013.3 1013.2 0.0
05/03:00pm 29.2 36.5 28.7 97 0.4 SE 9 15 5 8 1013.6 1013.5 0.0
05/02:30pm 29.3 36.4 28.9 98 0.3 S 11 15 6 8 1013.6 1013.5 0.0
05/02:00pm 28.8 35.5 28.4 98 0.3 SSE 11 15 6 8 1013.7 1013.6 0.0
05/01:30pm 28.9 35.4 28.1 95 0.6 SSE 11 15 6 8 1014.0 1013.9 0.0
05/01:00pm 28.8 33.6 25.1 80 2.6 ESE 9 17 5 9 1014.4 1014.3 0.0
05/12:30pm 28.6 34.0 26.6 89 1.4 E 11 19 6 10 1014.9 1014.8 0.0
05/12:00pm 27.8 32.9 26.7 94 0.8 ESE 13 17 7 9 1015.6 1015.5 0.0
05/11:30am 27.1 30.7 26.1 94 0.7 SE 19 24 10 13 1016.2 1016.1 0.0
05/11:00am 26.5 26.9 19.9 67 4.3 ESE 17 24 9 13 1016.6 1016.5 0.0
05/10:30am 26.7 22.1 3.6 22 11.5 SE 17 22 9 12 1017.2 1017.1 0.0
05/10:00am 25.1 20.1 -1.4 17 11.9 SE 15 22 8 12 1017.6 1017.5 0.0
05/09:30am 24.8 19.7 -1.7 17 11.8 SSE 15 20 8 11 1017.9 1017.8 0.0
05/09:00am 23.8 19.3 -0.6 20 11.0 SSE 13 20 7 11 1018.1 1018.0 0.0
05/08:30am 22.9 17.7 -0.2 21 10.4 SSE 17 22 9 12 1018.2 1018.1 0.0
05/08:00am 21.7 16.6 0.5 24 9.6 SSE 17 24 9 13 1018.1 1018.0 0.0
05/07:30am 20.6 22.1 19.8 95 0.5 SSE 11 15 6 8 1018.0 1017.9 0.0
05/07:00am 19.0 16.1 4.7 39 6.9 SSE 9 15 5 8 1017.9 1017.8 0.0
05/06:52am 17.1 14.8 5.8 47 5.5 SSE 7 13 4 7 1017.8 1017.7 0.0
05/06:30am 12.0 10.1 7.7 75 2.1 SE 7 9 4 5 1017.7 1017.6 0.0
05/06:00am 10.1 8.9 6.5 78 1.7 SSE 2 7 1 4 1017.4 1017.3 0.0
05/05:30am 10.4 9.0 7.3 81 1.5 SE 4 7 2 4 1017.1 1017.0 0.0
05/05:00am 10.2 8.3 7.7 84 1.2 SE 7 9 4 5 1016.7 1016.6 0.0
05/04:30am 10.8 8.9 7.7 81 1.5 SSE 7 9 4 5 1016.4 1016.3 0.0
05/04:07am 11.9 10.0 8.9 82 1.5 SSE 9 15 5 8 1016.2 1016.1 0.0
05/04:00am 17.0 14.0 5.9 48 5.4 SSE 11 15 6 8 1016.1 1016.0 0.0
05/03:57am 16.8 13.8 5.9 48 5.3 SSE 11 17 6 9 1016.0 1015.9 0.0
05/03:30am 11.8 10.9 9.2 84 1.3 SSE 4 9 2 5 1015.8 1015.7 0.0
05/03:00am 12.5 12.7 11.7 95 0.4 SSE 2 7 1 4 1015.7 1015.6 0.0
05/02:48am 13.0 - 14.1 - - SE 7 9 4 5 1015.7 1015.6 0.0
05/02:30am 18.2 19.3 18.0 99 0.1 SSE 9 11 5 6 1015.5 1015.4 0.0
05/02:00am 18.5 18.1 16.3 87 1.3 SSE 13 15 7 8 1015.6 1015.5 0.0
05/01:30am 15.8 14.5 11.3 74 2.4 SSE 9 11 5 6 1015.7 1015.6 0.0
05/01:00am 18.3 17.4 12.6 69 3.2 S 9 11 5 6 1015.7 1015.6 0.0
05/12:30am 16.8 16.0 12.8 77 2.2 SSE 9 11 5 6 1015.6 1015.5 0.0
05/12:00am 16.6 16.1 12.6 77 2.2 SSE 7 9 4 5 1015.8 1015.7 0.0
 
Date/Time
WST
Temp
°C
App
Temp
°C
Dew
Point
Rel
Hum
%
Delta-T
°C
Wind Press
QNH
hPa
Press
MSL
hPa
Rain
since 9 am
mm
Dir
 
Spd
km/h
Gust
km/h
Spd
kts
Gust
kts
04/11:30pm 18.9 16.4 8.0 49 5.6 S 11 13 6 7 1015.8 1015.7 0.0
04/11:00pm 14.3 13.8 9.4 72 2.5 SSE 2 6 1 3 1015.8 1015.7 0.0
04/10:30pm 15.7 16.0 10.8 72 2.6 CALM 0 2 0 1 1015.8 1015.7 0.0
04/10:00pm 17.9 16.4 8.6 54 4.8 ESE 6 9 3 5 1015.6 1015.5 0.0
04/09:30pm 18.9 16.7 8.0 49 5.6 SE 9 13 5 7 1015.5 1015.4 0.0
04/09:00pm 15.6 14.1 10.7 72 2.6 ESE 9 13 5 7 1015.5 1015.4 0.0
04/08:30pm 16.8 15.6 10.4 66 3.4 SSE 7 9 4 5 1015.2 1015.1 0.0
04/08:00pm 17.3 16.5 11.0 66 3.4 SSE 6 7 3 4 1015.1 1015.0 0.0
04/07:30pm 17.6 16.8 11.1 65 3.5 SSE 6 7 3 4 1014.9 1014.8 0.0
04/07:00pm 18.7 18.4 12.6 67 3.4 SE 6 6 3 3 1014.5 1014.4 0.0
04/06:30pm 20.7 22.6 18.6 88 1.3 S 6 7 3 4 1014.2 1014.1 0.0
04/06:00pm 23.9 27.6 23.3 96 0.4 SSE 9 11 5 6 1013.9 1013.8 0.0
04/05:30pm 24.6 29.0 24.5 99 0.1 S 9 13 5 7 1013.8 1013.7 0.0
04/05:00pm 25.5 30.6 25.5 100 0.0 SSE 9 13 5 7 1013.6 1013.5 0.0
04/04:30pm 27.1 32.1 27.1 100 0.0 SSE 15 20 8 11 1013.4 1013.3 0.0
04/04:00pm 27.8 32.8 27.7 99 0.1 SSE 17 26 9 14 1013.3 1013.2 0.0
04/03:30pm 28.0 32.3 28.0 100 0.0 S 22 30 12 16 1013.2 1013.1 0.0
04/03:00pm 28.5 33.7 28.4 99 0.1 S 19 26 10 14 1013.2 1013.1 0.0
04/02:30pm 28.4 33.9 28.4 100 0.0 SSE 17 24 9 13 1013.4 1013.3 0.0
04/02:00pm 28.7 34.4 28.6 99 0.1 SSE 17 22 9 12 1013.6 1013.5 0.0
04/01:30pm 28.8 34.8 28.5 98 0.2 SSE 15 20 8 11 1013.8 1013.7 0.0
04/01:00pm 28.8 34.0 28.0 95 0.6 SSE 17 24 9 13 1014.3 1014.2 0.0
04/12:30pm 28.2 32.2 26.2 89 1.4 SSE 17 26 9 14 1014.9 1014.8 0.0
04/12:00pm 28.5 30.7 21.8 67 4.5 S 13 24 7 13 1015.5 1015.4 0.0
04/11:30am 27.4 25.7 14.8 46 7.6 S 17 28 9 15 1016.1 1016.0 0.0
04/11:00am 27.1 22.8 3.0 21 11.9 SSE 15 20 8 11 1016.7 1016.6 0.0
04/10:30am 26.6 22.1 0.0 17 12.4 SE 13 20 7 11 1017.1 1017.0 0.0
04/10:00am 26.1 20.8 -0.8 17 12.3 ESE 17 30 9 16 1017.5 1017.4 0.0
04/09:30am 25.4 19.6 -1.2 17 12.0 ESE 19 26 10 14 1017.9 1017.8 0.0
04/09:00am 24.3 19.9 0.5 21 11.0 SE 13 19 7 10 1018.3 1018.2 0.0
04/08:30am 23.5 19.4 4.5 29 9.4 SE 15 20 8 11 1018.6 1018.4 0.0
04/08:00am 22.3 23.5 22.1 99 0.1 SSE 19 24 10 13 1018.7 1018.5 0.0
04/07:30am 21.5 23.0 21.2 98 0.2 SSE 15 20 8 11 1018.3 1018.2 0.0
04/07:00am 20.5 19.3 14.1 66 3.7 SSE 13 17 7 9 1018.0 1017.9 0.0
04/06:51am 20.3 17.7 7.7 44 6.5 SSE 11 15 6 8 1017.9 1017.8 0.0
04/06:30am 15.3 13.8 9.0 66 3.2 SE 7 11 4 6 1017.7 1017.6 0.0
04/06:00am 13.6 12.5 9.9 78 1.9 SE 6 7 3 4 1017.3 1017.2 0.0
04/05:30am 13.4 13.4 9.9 79 1.8 CALM 0 0 0 0 1016.8 1016.7 0.0
04/05:00am 14.9 13.5 9.0 68 3.0 SE 6 15 3 8 1016.5 1016.4 0.0
04/04:30am 16.3 14.2 8.2 58 4.1 ESE 9 17 5 9 1016.2 1016.1 0.0
04/04:00am 13.9 13.8 9.4 74 2.3 CALM 0 0 0 0 1016.3 1016.2 0.0
04/03:30am 15.6 14.2 9.4 66 3.2 ESE 7 9 4 5 1016.2 1016.1 0.0
04/03:00am 14.6 14.8 10.4 76 2.2 CALM 0 0 0 0 1016.0 1015.9 0.0
04/02:30am 14.6 14.8 10.6 77 2.1 CALM 0 7 0 4 1015.9 1015.8 0.0
04/02:00am 16.3 16.6 10.9 70 2.9 CALM 0 0 0 0 1015.8 1015.7 0.0
04/01:30am 16.3 15.8 11.9 75 2.4 S 6 7 3 4 1015.8 1015.7 0.0
04/01:00am 20.1 21.2 17.0 82 1.9 SE 7 9 4 5 1015.9 1015.8 0.0
04/12:30am 21.6 21.7 15.4 68 3.7 SE 9 13 5 7 1016.1 1016.0 0.0
04/12:00am 21.8 20.9 11.4 51 5.8 SE 7 11 4 6 1016.3 1016.2 0.0
 
Date/Time
WST
Temp
°C
App
Temp
°C
Dew
Point
Rel
Hum
%
Delta-T
°C
Wind Press
QNH
hPa
Press
MSL
hPa
Rain
since 9 am
mm
Dir
 
Spd
km/h
Gust
km/h
Spd
kts
Gust
kts
03/11:30pm 19.9 18.6 9.8 52 5.4 SSE 7 15 4 8 1016.4 1016.3 0.0
03/11:00pm 17.7 16.6 12.1 69 3.1 SSW 9 9 5 5 1016.4 1016.3 0.0
03/10:30pm 19.3 18.4 10.8 58 4.6 SSE 6 7 3 4 1016.3 1016.2 0.0
03/10:00pm 18.8 18.8 11.3 61 4.1 ENE 2 6 1 3 1016.4 1016.3 0.0
03/09:30pm 18.4 18.0 12.3 67 3.4 NNE 6 9 3 5 1016.3 1016.2 0.0
03/09:00pm 22.6 21.9 13.2 55 5.4 SSE 9 13 5 7 1016.1 1016.0 0.0
03/08:30pm 21.2 22.4 17.3 78 2.4 SE 7 11 4 6 1016.0 1015.9 0.0
03/08:00pm 24.3 26.1 19.6 75 3.0 SSE 9 13 5 7 1015.9 1015.8 0.0
03/07:30pm 24.6 24.4 16.6 61 4.9 SE 13 17 7 9 1015.8 1015.7 0.0
03/07:00pm 23.9 23.0 13.8 53 5.9 SSE 11 13 6 7 1015.5 1015.4 0.0
03/06:30pm 24.2 23.6 13.6 51 6.2 SSE 9 11 5 6 1015.4 1015.3 0.0
03/06:00pm 25.1 24.6 13.9 49 6.6 S 9 13 5 7 1015.3 1015.2 0.0

Other Formats:

Comma delimited format used in spreadsheet applications
http://www.bom.gov.au/fwo/IDW60801/IDW60801.94216.axf

JavaScript Object Notation format (JSON) in row-major order
http://www.bom.gov.au/fwo/IDW60801/IDW60801.94216.json